Airfield :
LOGIN :

Register | Disclaimer

   EN    FR    IT 

 










Legend :    VFR   Marginal VFR   IFR   Intensive IFR   Very Intensive IFR
Visi :
Ceiling :
>= 8 km
>= 3000ft
5 to 8 km
1000 to 3000 ft
1500m to 5 km
500 to 1000 ft
800 to 1500m
200 to 500 ft
< 800m
< 200 ft
Symbols :   Thunderstorms  Fog  Heavy snow  Heavy precipitations  Wind > 20 kt
SIGMETs :     Misc.  Thunderstorms  Icing  Turbulence  Mountain Waves  Volcanic Ashes







- Airport Elevation : 46 ft
- IATA code : SNN


EINN - Shannon

CURRENT METAR :
  • 181200Z 17006KT 9999 FEW023 SCT200 09/05 Q1004 NOSIG

EXPIRED METARs :
  • 181130Z 17007KT 9999 FEW025 08/05 Q1004 NOSIG
  • 181100Z 14005KT 9999 FEW023 07/05 Q1004 NOSIG
  • 181030Z 14005KT 9999 FEW023 07/05 Q1004 NOSIG
  • 181000Z 12005KT 9999 FEW023 06/04 Q1004 NOSIG
  • 180930Z 16008KT 9999 FEW023 06/05 Q1004 NOSIG

TAF TAF EINN
Valid from the 18 at 12:00 until the 19 at 12:00 UTC


181100Z 1812/1912 17006KT 9999 FEW015 SCT025
BECMG 1812/1813 21008KT
PROB30
TEMPO 1813/1817 -SHRA SCT015 SCT018CB
BECMG 1815/1818 18008KT
TEMPO 1817/1823 4000 -SHRA BKN012 SCT018CB
PROB30
TEMPO 1818/1823 SHRA
BECMG 1819/1822 23009KT
TEMPO 1900/1912 3000 -SHRA BR SCT010
BECMG 1901/1903 20006KT
BECMG 1903/1905 VRB03KT
PROB40
TEMPO 1903/1910 1500 BR BKN002
TEMPO 1905/1912 26005KT
PROB30
TEMPO 1910/1912 0800 FG BKN001
No reported NOTAMs for that airfield.



MET'MAP, your aeronautical weather chart ! - Copyright ORBIFLY December 2007 - Disclaimer

ORBIFLY MET'MAP TEAM :

Programming & Development : Alexandra Zaïnal
Concept & Development : Baudouin d'Aumeries
Co-Development & Prog : Marc-Olivier Méhu
Technical & hardware support : Manuel Goepfert

Contact : metmap@orbifly.com




SOURCES & CREDITS :

   NOAA